createdAt,value
2019-03-03T00:01:59.411Z,4.83
2019-03-03T00:04:30.239Z,5.08
2019-03-03T00:07:00.965Z,4.72
2019-03-03T00:09:29.395Z,5.53
2019-03-03T00:11:58.052Z,4.00
2019-03-03T00:14:26.054Z,5.17
2019-03-03T00:16:56.316Z,5.05
2019-03-03T00:19:24.871Z,4.33
2019-03-03T00:21:53.090Z,4.40
2019-03-03T00:24:21.570Z,4.60
2019-03-03T00:26:49.480Z,4.65
2019-03-03T00:29:19.842Z,4.65
2019-03-03T00:31:49.203Z,4.95
2019-03-03T00:34:18.611Z,7.92
2019-03-03T00:37:14.794Z,4.95
2019-03-03T00:40:04.682Z,6.97
2019-03-03T00:43:05.680Z,5.50
2019-03-03T00:45:51.725Z,5.72
2019-03-03T00:48:28.759Z,5.95
2019-03-03T00:51:19.156Z,5.90
2019-03-03T00:54:10.467Z,6.90
2019-03-03T00:56:51.217Z,6.30
2019-03-03T00:59:51.990Z,6.30
2019-03-03T01:02:43.165Z,6.97
2019-03-03T01:05:30.341Z,6.78
2019-03-03T01:08:16.139Z,6.72
2019-03-03T01:11:02.089Z,6.60
2019-03-03T01:13:47.671Z,6.45
2019-03-03T01:16:33.261Z,5.90
2019-03-03T01:19:16.098Z,5.80
2019-03-03T01:22:06.071Z,5.67
2019-03-03T01:24:58.849Z,6.28
2019-03-03T01:27:29.344Z,5.67
2019-03-03T01:29:58.843Z,5.92
2019-03-03T01:32:30.176Z,5.67
2019-03-03T01:34:59.749Z,6.75
2019-03-03T01:37:31.218Z,5.55
2019-03-03T01:39:59.505Z,4.62
2019-03-03T01:42:27.479Z,5.47
2019-03-03T01:44:55.370Z,4.45
2019-03-03T01:47:23.306Z,4.60
2019-03-03T01:49:51.259Z,4.35
2019-03-03T01:52:20.486Z,3.87
2019-03-03T01:54:48.398Z,4.05
2019-03-03T01:57:22.171Z,3.83
2019-03-03T01:59:50.101Z,3.80
2019-03-03T02:02:18.542Z,4.15
2019-03-03T02:04:46.413Z,3.42
2019-03-03T02:07:14.982Z,3.10
2019-03-03T02:09:44.872Z,3.30
2019-03-03T02:12:13.890Z,3.37
2019-03-03T02:14:42.224Z,3.40
2019-03-03T02:17:10.805Z,3.10
2019-03-03T02:19:39.001Z,3.52
2019-03-03T02:22:08.039Z,3.02
2019-03-03T02:24:37.897Z,3.27
2019-03-03T02:27:05.838Z,2.87
2019-03-03T02:29:34.145Z,2.80
2019-03-03T02:32:05.418Z,2.85
2019-03-03T02:34:33.321Z,3.40
2019-03-03T02:37:01.266Z,2.80
2019-03-03T02:39:29.182Z,2.75
2019-03-03T02:41:57.189Z,2.52
2019-03-03T02:44:27.595Z,3.17
2019-03-03T02:46:55.468Z,2.50
2019-03-03T02:49:23.525Z,2.20
2019-03-03T02:51:59.951Z,3.47
2019-03-03T02:54:27.852Z,3.00
2019-03-03T02:56:55.742Z,2.80
2019-03-03T02:59:23.675Z,2.75
2019-03-03T03:01:56.577Z,3.70
2019-03-03T03:04:26.394Z,2.22
2019-03-03T03:07:16.415Z,4.45
2019-03-03T03:10:03.203Z,3.00
2019-03-03T03:12:51.354Z,2.52
2019-03-03T03:15:50.193Z,2.42
2019-03-03T03:18:38.201Z,2.62
2019-03-03T03:21:18.202Z,3.58
2019-03-03T03:24:01.050Z,3.05
2019-03-03T03:26:37.816Z,2.58
2019-03-03T03:29:26.162Z,2.65
2019-03-03T03:32:16.316Z,2.70
2019-03-03T03:34:59.107Z,2.70
2019-03-03T03:37:55.202Z,2.62
2019-03-03T03:40:35.295Z,3.20
2019-03-03T03:43:10.484Z,2.87
2019-03-03T03:45:56.310Z,3.12
2019-03-03T03:48:42.160Z,2.83
2019-03-03T03:51:34.546Z,3.22
2019-03-03T03:54:31.728Z,2.55
2019-03-03T03:57:05.595Z,3.10
2019-03-03T03:59:55.195Z,2.80
2019-03-03T04:02:45.289Z,2.72
2019-03-03T04:05:42.580Z,3.85
2019-03-03T04:08:27.974Z,2.70
2019-03-03T04:11:23.689Z,2.92
2019-03-03T04:14:19.466Z,2.98
2019-03-03T04:16:57.244Z,2.65
2019-03-03T04:19:49.034Z,2.77
2019-03-03T04:22:37.580Z,2.35
2019-03-03T04:25:15.913Z,2.87
2019-03-03T04:28:08.901Z,4.35
2019-03-03T04:30:57.402Z,2.87
2019-03-03T04:33:50.466Z,3.27
2019-03-03T04:36:49.525Z,2.75
2019-03-03T04:39:44.201Z,3.90
2019-03-03T04:42:35.438Z,3.40
2019-03-03T04:45:41.949Z,3.60
2019-03-03T04:48:24.981Z,3.35
2019-03-03T04:51:16.946Z,3.10
2019-03-03T04:54:13.028Z,5.12
2019-03-03T04:56:59.248Z,2.85
2019-03-03T04:59:36.618Z,3.02
2019-03-03T05:02:24.998Z,2.92
2019-03-03T05:05:12.289Z,3.25
2019-03-03T05:08:13.459Z,2.80
2019-03-03T05:11:07.526Z,3.25
2019-03-03T05:13:44.407Z,2.65
2019-03-03T05:16:34.149Z,3.10
2019-03-03T05:19:07.316Z,4.15
2019-03-03T05:21:38.169Z,3.30
2019-03-03T05:24:06.638Z,3.02
2019-03-03T05:26:35.609Z,3.12
2019-03-03T05:29:03.690Z,3.05
2019-03-03T05:31:37.738Z,3.20
2019-03-03T05:34:06.726Z,3.40
2019-03-03T05:36:34.839Z,3.67
2019-03-03T05:39:04.401Z,3.10
2019-03-03T05:41:33.591Z,4.08
2019-03-03T05:44:01.656Z,2.80
2019-03-03T05:46:30.269Z,3.17
2019-03-03T05:49:00.127Z,3.65
2019-03-03T05:51:30.595Z,3.30
2019-03-03T05:53:58.574Z,3.37
2019-03-03T05:56:26.621Z,3.65
2019-03-03T05:58:56.245Z,3.83
2019-03-03T06:01:24.194Z,3.15
2019-03-03T06:03:53.929Z,3.90
2019-03-03T06:06:21.912Z,3.62
2019-03-03T06:08:49.908Z,4.08
2019-03-03T06:11:18.370Z,3.70
2019-03-03T06:13:48.287Z,3.35
2019-03-03T06:16:21.617Z,3.02
2019-03-03T06:18:49.582Z,3.35
2019-03-03T06:21:19.136Z,3.47
2019-03-03T06:23:47.005Z,3.52
2019-03-03T06:26:15.038Z,4.00
2019-03-03T06:28:44.177Z,3.75
2019-03-03T06:31:14.512Z,3.45
2019-03-03T06:33:44.493Z,3.50
2019-03-03T06:36:12.517Z,3.62
2019-03-03T06:38:40.934Z,4.33
2019-03-03T06:41:11.341Z,4.10
2019-03-03T06:43:39.318Z,3.37
2019-03-03T06:46:09.852Z,3.72
2019-03-03T06:48:37.726Z,3.30
2019-03-03T06:51:06.894Z,3.62
2019-03-03T06:53:34.853Z,4.35
2019-03-03T06:56:02.861Z,3.33
2019-03-03T06:58:31.660Z,3.80
2019-03-03T07:00:59.681Z,4.33
2019-03-03T07:03:27.645Z,4.15
2019-03-03T07:05:55.601Z,5.30
2019-03-03T07:08:23.579Z,4.55
2019-03-03T07:10:52.386Z,4.33
2019-03-03T07:13:20.285Z,4.35
2019-03-03T07:15:48.111Z,3.85
2019-03-03T07:18:15.966Z,4.22
2019-03-03T07:20:43.786Z,4.55
2019-03-03T07:23:11.716Z,5.10
2019-03-03T07:25:39.589Z,4.40
2019-03-03T07:28:07.430Z,4.65
2019-03-03T07:30:35.286Z,4.80
2019-03-03T07:33:25.225Z,4.35
2019-03-03T07:35:53.103Z,5.00
2019-03-03T07:38:20.948Z,5.50
2019-03-03T07:40:48.822Z,5.30
2019-03-03T07:43:16.690Z,5.33
2019-03-03T07:45:44.546Z,5.87
2019-03-03T07:48:12.793Z,4.92
2019-03-03T07:50:40.653Z,7.00
2019-03-03T07:53:08.514Z,6.00
2019-03-03T07:55:36.382Z,7.12
2019-03-03T07:58:04.382Z,6.05
2019-03-03T08:00:32.242Z,5.78
2019-03-03T08:03:00.051Z,6.40
2019-03-03T08:05:27.958Z,6.22
2019-03-03T08:07:55.805Z,7.95
2019-03-03T08:10:23.715Z,6.97
2019-03-03T08:12:51.582Z,5.78
2019-03-03T08:15:19.459Z,6.45
2019-03-03T08:17:47.307Z,6.15
2019-03-03T08:20:15.185Z,6.62
2019-03-03T08:22:43.126Z,6.37
2019-03-03T08:25:11.001Z,6.03
2019-03-03T08:27:38.834Z,6.65
2019-03-03T08:30:07.325Z,7.55
2019-03-03T08:32:35.249Z,7.40
2019-03-03T08:35:03.072Z,7.95
2019-03-03T08:37:30.943Z,7.00
2019-03-03T08:39:58.788Z,6.25
2019-03-03T08:42:33.010Z,6.47
2019-03-03T08:45:22.707Z,6.53
2019-03-03T08:48:01.267Z,6.47
2019-03-03T08:50:48.145Z,6.65
2019-03-03T08:53:38.389Z,7.47
2019-03-03T08:56:18.626Z,6.60
2019-03-03T08:59:05.518Z,6.95
2019-03-03T09:01:51.390Z,7.10
2019-03-03T09:04:53.661Z,6.90
2019-03-03T09:07:32.103Z,7.28
2019-03-03T09:10:14.710Z,7.20
2019-03-03T09:12:51.200Z,6.40
2019-03-03T09:15:41.233Z,7.60
2019-03-03T09:18:40.231Z,7.28
2019-03-03T09:21:20.733Z,7.37
2019-03-03T09:24:06.419Z,7.25
2019-03-03T09:26:51.958Z,8.10
2019-03-03T09:29:39.632Z,7.37
2019-03-03T09:32:35.842Z,6.90
2019-03-03T09:35:21.841Z,6.30
2019-03-03T09:38:08.738Z,6.33
2019-03-03T09:40:58.428Z,6.62
2019-03-03T09:43:35.238Z,6.10
2019-03-03T09:46:22.006Z,6.25
2019-03-03T09:49:08.977Z,6.70
2019-03-03T09:51:57.077Z,6.50
2019-03-03T09:54:42.072Z,5.80
2019-03-03T09:57:40.955Z,5.45
2019-03-03T10:00:20.196Z,5.22
2019-03-03T10:03:16.151Z,5.65
2019-03-03T10:06:01.310Z,6.28
2019-03-03T10:08:46.885Z,5.87
2019-03-03T10:11:32.407Z,5.58
2019-03-03T10:14:11.341Z,5.15
2019-03-03T10:17:04.810Z,5.33
2019-03-03T10:19:50.672Z,5.60
2019-03-03T10:22:55.737Z,4.95
2019-03-03T10:25:54.547Z,4.67
2019-03-03T10:28:47.522Z,4.53
2019-03-03T10:31:38.364Z,4.45
2019-03-03T10:34:22.810Z,4.47
2019-03-03T10:37:03.197Z,3.80
2019-03-03T10:39:42.330Z,3.90
2019-03-03T10:42:28.092Z,3.65
2019-03-03T10:45:27.137Z,3.70
2019-03-03T10:48:14.116Z,3.72
2019-03-03T10:50:55.405Z,3.72
2019-03-03T10:53:54.436Z,3.85
2019-03-03T10:56:35.743Z,3.65
2019-03-03T10:59:28.866Z,4.15
2019-03-03T11:02:28.080Z,4.25
2019-03-03T11:05:09.503Z,3.62
2019-03-03T11:08:03.336Z,4.25
2019-03-03T11:10:47.350Z,3.98
2019-03-03T11:13:37.828Z,3.77
2019-03-03T11:16:39.585Z,4.33
2019-03-03T11:23:03.222Z,4.30
2019-03-03T11:25:52.754Z,4.00
2019-03-03T11:28:44.499Z,3.90
2019-03-03T11:31:33.301Z,4.37
2019-03-03T11:34:35.311Z,4.58
2019-03-03T11:37:09.285Z,4.17
2019-03-03T11:39:48.998Z,3.85
2019-03-03T11:42:41.948Z,4.35
2019-03-03T11:45:32.193Z,4.50
2019-03-03T11:48:07.774Z,5.30
2019-03-03T11:50:54.767Z,5.05
2019-03-03T11:53:30.029Z,4.50
2019-03-03T11:56:20.237Z,4.33
2019-03-03T11:59:07.162Z,4.45
2019-03-03T12:01:47.934Z,5.47
2019-03-03T12:04:38.993Z,5.65
2019-03-03T12:07:18.397Z,5.00
2019-03-03T12:09:55.590Z,4.95
2019-03-03T12:12:40.453Z,4.90
2019-03-03T12:15:29.982Z,4.80
2019-03-03T12:18:26.018Z,5.33
2019-03-03T12:21:16.031Z,5.47
2019-03-03T12:24:05.859Z,5.00
2019-03-03T12:26:52.824Z,5.45
2019-03-03T12:29:55.617Z,5.37
2019-03-03T12:32:42.607Z,5.20
2019-03-03T12:35:23.456Z,4.70
2019-03-03T12:38:01.079Z,4.90
2019-03-03T12:40:47.090Z,4.87
2019-03-03T12:43:36.067Z,4.67
2019-03-03T12:46:33.598Z,3.98
2019-03-03T12:49:23.575Z,4.50
2019-03-03T12:51:58.272Z,4.00
2019-03-03T12:55:00.335Z,5.50
2019-03-03T12:57:59.359Z,3.58
2019-03-03T13:00:55.562Z,3.70
2019-03-03T13:03:48.801Z,3.98
2019-03-03T13:06:35.603Z,3.60
2019-03-03T13:09:36.938Z,3.80
2019-03-03T13:12:24.073Z,3.45
2019-03-03T13:15:10.010Z,4.30
2019-03-03T13:17:56.008Z,4.10
2019-03-03T13:20:42.045Z,5.05
2019-03-03T13:23:27.594Z,3.90
2019-03-03T13:26:13.731Z,4.15
2019-03-03T13:29:00.625Z,3.75
2019-03-03T13:31:50.651Z,3.77
2019-03-03T13:34:43.627Z,4.30
2019-03-03T13:37:26.807Z,4.87
2019-03-03T13:40:03.658Z,4.12
2019-03-03T13:42:37.698Z,4.17
2019-03-03T13:45:06.215Z,4.50
2019-03-03T13:47:34.077Z,4.33
2019-03-03T13:50:01.986Z,4.15
2019-03-03T13:52:29.830Z,5.22
2019-03-03T13:54:57.759Z,4.00
2019-03-03T13:57:25.635Z,4.12
2019-03-03T13:59:53.524Z,4.60
2019-03-03T14:02:21.371Z,6.17
2019-03-03T14:04:49.242Z,5.03
2019-03-03T14:07:17.077Z,5.00
2019-03-03T14:09:44.974Z,5.33
2019-03-03T14:12:13.067Z,5.85
2019-03-03T14:14:40.955Z,5.22
2019-03-03T14:17:08.846Z,6.05
2019-03-03T14:19:36.712Z,5.15
2019-03-03T14:22:04.638Z,6.47
2019-03-03T14:24:32.549Z,5.75
2019-03-03T14:27:10.115Z,5.65
2019-03-03T14:29:30.053Z,5.62
2019-03-03T14:31:57.940Z,6.35
2019-03-03T14:34:25.764Z,5.83
2019-03-03T14:36:53.634Z,5.53
2019-03-03T14:39:21.462Z,6.85
2019-03-03T14:41:49.340Z,6.25
2019-03-03T14:44:17.240Z,6.08
2019-03-03T14:46:45.111Z,5.53
2019-03-03T14:49:12.950Z,6.22
2019-03-03T14:51:40.837Z,4.83
2019-03-03T14:54:08.722Z,5.50
2019-03-03T14:56:36.842Z,5.35
2019-03-03T14:59:04.774Z,5.53
2019-03-03T15:01:32.686Z,5.42
2019-03-03T15:04:00.550Z,5.15
2019-03-03T15:06:28.431Z,5.92
2019-03-03T15:08:56.286Z,5.30
2019-03-03T15:11:24.242Z,5.30
2019-03-03T15:13:52.176Z,6.60
2019-03-03T15:16:20.126Z,6.47
2019-03-03T15:18:49.122Z,5.90
2019-03-03T15:21:24.769Z,6.08
2019-03-03T15:23:46.754Z,4.97
2019-03-03T15:26:14.661Z,4.85
2019-03-03T15:28:42.994Z,6.55
2019-03-03T15:31:10.899Z,6.28
2019-03-03T15:33:39.382Z,7.35
2019-03-03T15:36:07.307Z,5.83
2019-03-03T15:38:35.162Z,6.05
2019-03-03T15:41:02.985Z,6.12
2019-03-03T15:43:30.929Z,6.58
2019-03-03T15:45:58.892Z,6.65
2019-03-03T15:48:26.811Z,6.78
2019-03-03T15:50:54.669Z,6.50
2019-03-03T15:53:22.647Z,6.33
2019-03-03T15:55:50.555Z,7.47
2019-03-03T15:58:18.417Z,6.40
2019-03-03T16:00:46.303Z,6.08
2019-03-03T16:03:14.339Z,6.37
2019-03-03T16:05:42.224Z,6.28
2019-03-03T16:08:10.161Z,6.37
2019-03-03T16:10:38.088Z,7.35
2019-03-03T16:13:05.982Z,6.03
2019-03-03T16:15:34.016Z,6.05
2019-03-03T16:18:01.882Z,6.20
2019-03-03T16:20:29.804Z,6.22
2019-03-03T16:22:57.645Z,5.53
2019-03-03T16:25:25.662Z,6.15
2019-03-03T16:27:53.552Z,5.87
2019-03-03T16:30:21.591Z,6.10
2019-03-03T16:32:49.557Z,5.60
2019-03-03T16:35:17.617Z,6.05
2019-03-03T16:37:45.913Z,5.78
2019-03-03T16:40:14.429Z,5.15
2019-03-03T16:42:42.363Z,5.85
2019-03-03T16:45:10.992Z,5.97
2019-03-03T16:47:39.040Z,6.10
2019-03-03T16:50:07.663Z,4.90
2019-03-03T16:52:35.730Z,5.65
2019-03-03T16:55:03.900Z,5.60
2019-03-03T16:57:31.826Z,5.20
2019-03-03T16:59:59.734Z,5.87
2019-03-03T17:02:27.644Z,5.70
2019-03-03T17:04:55.502Z,5.47
2019-03-03T17:07:23.432Z,5.72
2019-03-03T17:09:51.302Z,5.70
2019-03-03T17:12:19.341Z,5.30
2019-03-03T17:14:54.031Z,4.90
2019-03-03T17:17:23.419Z,5.20
2019-03-03T17:19:51.373Z,4.67
2019-03-03T17:22:21.397Z,6.30
2019-03-03T17:24:49.755Z,4.62
2019-03-03T17:27:17.790Z,4.62
2019-03-03T17:29:46.914Z,4.62
2019-03-03T17:32:14.893Z,5.45
2019-03-03T17:34:44.232Z,5.22
2019-03-03T17:37:12.159Z,4.83
2019-03-03T17:39:40.119Z,4.90
2019-03-03T17:42:08.013Z,4.55
2019-03-03T17:44:35.976Z,6.30
2019-03-03T17:47:03.939Z,5.05
2019-03-03T17:49:31.814Z,4.75
2019-03-03T17:51:59.745Z,4.65
2019-03-03T17:54:27.706Z,4.87
2019-03-03T17:56:55.596Z,5.40
2019-03-03T17:59:24.525Z,4.17
2019-03-03T18:01:57.214Z,4.15
2019-03-03T18:04:25.198Z,4.40
2019-03-03T18:06:53.124Z,4.83
2019-03-03T18:09:22.128Z,4.65
2019-03-03T18:11:50.053Z,4.50
2019-03-03T18:14:17.934Z,3.80
2019-03-03T18:16:47.190Z,4.55
2019-03-03T18:19:48.368Z,5.42
2019-03-03T18:22:16.753Z,4.25
2019-03-03T18:24:44.732Z,4.03
2019-03-03T18:27:13.268Z,4.30
2019-03-03T18:29:47.222Z,4.28
2019-03-03T18:32:17.378Z,4.37
2019-03-03T18:34:45.369Z,3.98
2019-03-03T18:37:15.667Z,4.50
2019-03-03T18:39:43.592Z,4.03
2019-03-03T18:42:12.017Z,4.58
2019-03-03T18:44:41.566Z,3.70
2019-03-03T18:47:10.807Z,3.77
2019-03-03T18:49:40.404Z,4.10
2019-03-03T18:52:09.747Z,3.50
2019-03-03T18:54:39.023Z,5.65
2019-03-03T18:57:07.376Z,4.70
2019-03-03T18:59:36.499Z,4.15
2019-03-03T19:02:05.902Z,4.03
2019-03-03T19:04:33.793Z,3.95
2019-03-03T19:07:01.822Z,4.42
2019-03-03T19:09:31.861Z,3.92
2019-03-03T19:12:00.270Z,3.62
2019-03-03T19:14:29.501Z,3.75
2019-03-03T19:16:57.660Z,4.00
2019-03-03T19:19:27.392Z,3.92
2019-03-03T19:21:56.568Z,4.25
2019-03-03T19:24:27.646Z,4.53
2019-03-03T19:26:55.612Z,3.75
2019-03-03T19:29:25.212Z,3.37
2019-03-03T19:31:53.202Z,4.03
2019-03-03T19:34:22.465Z,3.50
2019-03-03T19:36:52.379Z,3.62
2019-03-03T19:39:21.780Z,4.15
2019-03-03T19:41:51.500Z,4.42
2019-03-03T19:44:19.470Z,4.05
2019-03-03T19:46:48.671Z,3.85
2019-03-03T19:49:16.706Z,4.78
2019-03-03T19:51:45.245Z,3.83
2019-03-03T19:54:13.258Z,4.30
2019-03-03T19:56:42.807Z,3.92
2019-03-03T19:59:10.757Z,3.47
2019-03-03T20:01:38.674Z,4.97
2019-03-03T20:04:09.135Z,5.65
2019-03-03T20:06:37.373Z,3.60
2019-03-03T20:09:06.856Z,5.60
2019-03-03T20:11:34.828Z,4.67
2019-03-03T20:14:03.210Z,4.05
2019-03-03T20:16:31.153Z,4.70
2019-03-03T20:18:59.103Z,3.00
2019-03-03T20:21:27.555Z,3.98
2019-03-03T20:23:56.669Z,3.58
2019-03-03T20:26:27.429Z,3.77
2019-03-03T20:28:56.675Z,3.58
2019-03-03T20:31:24.650Z,4.05
2019-03-03T20:33:52.551Z,4.00
2019-03-03T20:36:20.526Z,4.55
2019-03-03T20:38:51.354Z,3.72
2019-03-03T20:41:20.479Z,3.90
2019-03-03T20:43:49.941Z,3.60
2019-03-03T20:46:20.162Z,4.12
2019-03-03T20:48:51.438Z,4.35
2019-03-03T20:51:21.638Z,3.95
2019-03-03T20:53:49.616Z,4.33
2019-03-03T20:56:17.635Z,4.40
2019-03-03T20:58:45.600Z,3.60
2019-03-03T21:01:14.193Z,3.90
2019-03-03T21:03:42.285Z,3.00
2019-03-03T21:06:10.564Z,3.60
2019-03-03T21:08:38.453Z,3.70
2019-03-03T21:11:06.930Z,3.12
2019-03-03T21:13:34.893Z,3.60
2019-03-03T21:16:02.988Z,4.00
2019-03-03T21:18:30.914Z,4.67
2019-03-03T21:21:00.140Z,3.22
2019-03-03T21:23:28.612Z,3.33
2019-03-03T21:25:56.745Z,3.58
2019-03-03T21:28:25.252Z,3.20
2019-03-03T21:30:53.627Z,4.20
2019-03-03T21:33:21.590Z,3.62
2019-03-03T21:35:52.663Z,3.20
2019-03-03T21:38:20.683Z,3.15
2019-03-03T21:40:48.610Z,3.83
2019-03-03T21:43:20.944Z,3.80
2019-03-03T21:45:48.826Z,3.58
2019-03-03T21:48:16.750Z,3.08
2019-03-03T21:50:46.940Z,3.80
2019-03-03T21:53:15.187Z,3.85
2019-03-03T21:55:45.707Z,3.92
2019-03-03T21:58:13.759Z,3.65
2019-03-03T22:00:49.097Z,3.30
2019-03-03T22:03:17.141Z,3.92
2019-03-03T22:05:45.236Z,3.70
2019-03-03T22:08:13.161Z,3.65
2019-03-03T22:10:43.592Z,3.40
2019-03-03T22:13:13.807Z,3.50
2019-03-03T22:15:42.277Z,3.30
2019-03-03T22:18:11.669Z,3.25
2019-03-03T22:20:41.778Z,3.35
2019-03-03T22:23:11.602Z,3.37
2019-03-03T22:25:40.000Z,3.33
2019-03-03T22:28:10.201Z,3.67
2019-03-03T22:30:38.166Z,3.10
2019-03-03T22:33:09.129Z,3.25
2019-03-03T22:35:37.405Z,3.77
2019-03-03T22:38:10.893Z,4.05
2019-03-03T22:40:36.725Z,3.30
2019-03-03T22:43:04.677Z,3.10
2019-03-03T22:45:32.992Z,3.77
2019-03-03T22:48:00.998Z,3.87
2019-03-03T22:50:28.934Z,3.22
2019-03-03T22:52:56.834Z,3.37
2019-03-03T22:55:25.514Z,3.00
2019-03-03T22:57:54.174Z,4.97
2019-03-03T23:00:55.421Z,2.75
2019-03-03T23:03:25.612Z,3.08
2019-03-03T23:06:13.071Z,2.75
2019-03-03T23:08:48.761Z,3.27
2019-03-03T23:11:27.625Z,3.10
2019-03-03T23:14:17.407Z,3.10
2019-03-03T23:17:16.608Z,3.58
2019-03-03T23:19:51.087Z,2.90
2019-03-03T23:22:34.641Z,2.22
2019-03-03T23:25:14.111Z,3.15
2019-03-03T23:27:42.066Z,3.52
2019-03-03T23:30:10.039Z,2.80
2019-03-03T23:32:38.386Z,2.40
2019-03-03T23:35:06.401Z,2.55
2019-03-03T23:37:37.967Z,2.55
2019-03-03T23:40:07.214Z,2.75
2019-03-03T23:42:36.586Z,2.45
2019-03-03T23:45:06.985Z,3.00
2019-03-03T23:47:37.106Z,2.50
2019-03-03T23:50:07.697Z,2.80
2019-03-03T23:52:45.389Z,2.90
2019-03-03T23:55:13.724Z,2.70
2019-03-03T23:57:44.411Z,2.40
